RYR18WB LEPA-EDJA
Flight info
| Callsign | RYR18WB |
|---|---|
| Flight time | 1h 43m |
| Altitude | 36000 |
| Route | MEROS N853 LUMAS DCT NEVIX DCT ODIXU DCT ADITA DCT RAPED DCT PIGOS DCT EKSID DCT NOSTA DCT NOPMU DCT ASTIG DCT ABESI N851 UTAVO DCT SOPER N851 KUDIS T103 NUNRI Z6 ALG |
| Aircraft | B738/M-SDE2E3FGHIRWXY/LB1 |
Departure
| Time | 2026-04-22 12:29 |
|---|---|
| Airport | Palma de Mallorca Airport (LEPA) |
Arrival
| Time | 2026-04-22 14:12 |
|---|---|
| Airport | Memmingen Allgau Airport (EDJA) |
| Time | Latitude | Longitude | Altitude | Speed | Heading |
|---|---|---|---|---|---|
| 2026-04-22 12:07 | 39.54999 | 2.73445 | 35 ft | 0 kts | 164° |
| 2026-04-22 12:17 | 39.55020 | 2.73434 | 33 ft | 4 kts | 141° |
| 2026-04-22 12:18 | 39.55033 | 2.73410 | 32 ft | 4 kts | 86° |
| 2026-04-22 12:18 | 39.55028 | 2.73389 | 33 ft | 1 kts | 57° |
| 2026-04-22 12:18 | 39.55027 | 2.73386 | 33 ft | 0 kts | 57° |
| 2026-04-22 12:25 | 39.55028 | 2.73388 | 35 ft | 3 kts | 57° |
| 2026-04-22 12:25 | 39.55069 | 2.73471 | 35 ft | 19 kts | 57° |
| 2026-04-22 12:25 | 39.55153 | 2.73642 | 35 ft | 16 kts | 57° |
| 2026-04-22 12:25 | 39.55172 | 2.73779 | 35 ft | 16 kts | 88° |
| 2026-04-22 12:26 | 39.55238 | 2.73802 | 34 ft | 12 kts | 327° |
| 2026-04-22 12:26 | 39.55329 | 2.73726 | 34 ft | 18 kts | 328° |
| 2026-04-22 12:26 | 39.55456 | 2.73627 | 32 ft | 23 kts | 328° |
| 2026-04-22 12:26 | 39.55578 | 2.73531 | 27 ft | 16 kts | 329° |
| 2026-04-22 12:27 | 39.55674 | 2.73537 | 28 ft | 16 kts | 54° |
| 2026-04-22 12:27 | 39.55699 | 2.73660 | 29 ft | 14 kts | 48° |
| 2026-04-22 12:27 | 39.55782 | 2.73781 | 24 ft | 24 kts | 51° |
| 2026-04-22 12:27 | 39.55897 | 2.73908 | 22 ft | 23 kts | 349° |
| 2026-04-22 12:28 | 39.55985 | 2.73788 | 22 ft | 15 kts | 288° |
| 2026-04-22 12:28 | 39.55889 | 2.73539 | 23 ft | 67 kts | 238° |
| 2026-04-22 12:28 | 39.55505 | 2.72735 | 28 ft | 141 kts | 238° |
| 2026-04-22 12:28 | 39.54872 | 2.71397 | 125 ft | 197 kts | 239° |
| 2026-04-22 12:29 | 39.54120 | 2.69787 | 505 ft | 231 kts | 237° |
| 2026-04-22 12:29 | 39.53141 | 2.68023 | 1017 ft | 248 kts | 235° |
| 2026-04-22 12:29 | 39.52238 | 2.66191 | 2181 ft | 231 kts | 239° |
| 2026-04-22 12:29 | 39.51439 | 2.64512 | 3387 ft | 209 kts | 239° |
| 2026-04-22 12:30 | 39.49792 | 2.61223 | 4398 ft | 237 kts | 227° |
| 2026-04-22 12:30 | 39.48304 | 2.60095 | 4639 ft | 263 kts | 193° |
| 2026-04-22 12:30 | 39.46463 | 2.60156 | 5189 ft | 275 kts | 164° |
| 2026-04-22 12:31 | 39.44794 | 2.61388 | 5863 ft | 282 kts | 136° |
| 2026-04-22 12:31 | 39.43756 | 2.63536 | 6518 ft | 287 kts | 106° |
| 2026-04-22 12:31 | 39.43458 | 2.66074 | 7187 ft | 288 kts | 92° |
| 2026-04-22 12:31 | 39.43430 | 2.68694 | 7843 ft | 292 kts | 88° |
| 2026-04-22 12:32 | 39.43457 | 2.71349 | 8509 ft | 294 kts | 88° |
| 2026-04-22 12:32 | 39.43487 | 2.76675 | 9831 ft | 300 kts | 88° |
| 2026-04-22 12:32 | 39.43478 | 2.79412 | 10317 ft | 308 kts | 88° |
| 2026-04-22 12:33 | 39.43456 | 2.82251 | 10466 ft | 328 kts | 89° |
| 2026-04-22 12:33 | 39.43424 | 2.85271 | 10607 ft | 347 kts | 89° |
| 2026-04-22 12:33 | 39.43382 | 2.88503 | 10745 ft | 365 kts | 89° |
| 2026-04-22 12:33 | 39.43331 | 2.91836 | 10876 ft | 381 kts | 89° |
| 2026-04-22 12:34 | 39.43273 | 2.95328 | 11009 ft | 396 kts | 90° |
| 2026-04-22 12:34 | 39.43213 | 2.98916 | 11315 ft | 403 kts | 89° |
| 2026-04-22 12:34 | 39.43151 | 3.02551 | 11769 ft | 406 kts | 90° |
| 2026-04-22 12:34 | 39.43087 | 3.06241 | 12249 ft | 409 kts | 90° |
| 2026-04-22 12:35 | 39.43022 | 3.09926 | 12696 ft | 412 kts | 90° |
| 2026-04-22 12:35 | 39.42956 | 3.13625 | 13132 ft | 414 kts | 90° |
| 2026-04-22 12:35 | 39.42888 | 3.17395 | 13557 ft | 417 kts | 90° |
| 2026-04-22 12:35 | 39.42840 | 3.21146 | 13934 ft | 420 kts | 87° |
| 2026-04-22 12:36 | 39.43191 | 3.24867 | 14289 ft | 420 kts | 75° |
| 2026-04-22 12:36 | 39.44077 | 3.28495 | 14675 ft | 419 kts | 65° |
| 2026-04-22 12:36 | 39.45416 | 3.31813 | 15009 ft | 419 kts | 57° |
| 2026-04-22 12:36 | 39.46939 | 3.35074 | 15317 ft | 421 kts | 56° |
| 2026-04-22 12:37 | 39.48453 | 3.38274 | 15614 ft | 424 kts | 56° |
| 2026-04-22 12:37 | 39.49988 | 3.41532 | 15926 ft | 425 kts | 57° |
| 2026-04-22 12:37 | 39.51536 | 3.44844 | 16220 ft | 427 kts | 57° |
| 2026-04-22 12:37 | 39.53060 | 3.48134 | 16509 ft | 430 kts | 57° |
| 2026-04-22 12:38 | 39.54587 | 3.51452 | 16775 ft | 431 kts | 57° |
| 2026-04-22 12:38 | 39.56136 | 3.54832 | 17046 ft | 433 kts | 57° |
| 2026-04-22 12:38 | 39.57671 | 3.58189 | 17322 ft | 435 kts | 57° |
| 2026-04-22 12:38 | 39.59212 | 3.61566 | 17572 ft | 437 kts | 57° |
| 2026-04-22 12:39 | 39.60772 | 3.64988 | 17819 ft | 439 kts | 57° |
| 2026-04-22 12:39 | 39.63877 | 3.71806 | 18291 ft | 442 kts | 57° |
| 2026-04-22 12:39 | 39.65436 | 3.75234 | 18487 ft | 444 kts | 57° |
| 2026-04-22 12:40 | 39.67003 | 3.78685 | 18686 ft | 445 kts | 57° |
| 2026-04-22 12:40 | 39.68591 | 3.82186 | 18872 ft | 447 kts | 57° |
| 2026-04-22 12:40 | 39.70163 | 3.85654 | 19053 ft | 448 kts | 58° |
| 2026-04-22 12:40 | 39.71747 | 3.89153 | 19232 ft | 450 kts | 58° |
| 2026-04-22 12:41 | 39.73341 | 3.92680 | 19410 ft | 451 kts | 58° |
| 2026-04-22 12:41 | 39.74933 | 3.96205 | 19575 ft | 452 kts | 58° |
| 2026-04-22 12:41 | 39.76514 | 3.99709 | 19746 ft | 454 kts | 58° |
| 2026-04-22 12:41 | 39.78109 | 4.03249 | 19897 ft | 455 kts | 58° |
| 2026-04-22 12:42 | 39.79709 | 4.06805 | 20055 ft | 456 kts | 58° |
| 2026-04-22 12:42 | 39.81309 | 4.10362 | 20205 ft | 457 kts | 58° |
| 2026-04-22 12:42 | 39.82924 | 4.13957 | 20361 ft | 459 kts | 58° |
| 2026-04-22 12:42 | 39.84590 | 4.17501 | 20493 ft | 458 kts | 51° |
| 2026-04-22 12:43 | 39.86818 | 4.20407 | 20612 ft | 454 kts | 33° |
| 2026-04-22 12:43 | 39.89582 | 4.22368 | 20790 ft | 448 kts | 17° |
| 2026-04-22 12:43 | 39.92579 | 4.23323 | 20940 ft | 444 kts | 7° |
| 2026-04-22 12:43 | 39.95628 | 4.23987 | 21082 ft | 445 kts | 6° |
| 2026-04-22 12:44 | 39.98684 | 4.24638 | 21191 ft | 447 kts | 6° |
| 2026-04-22 12:44 | 40.01783 | 4.25311 | 21324 ft | 449 kts | 6° |
| 2026-04-22 12:44 | 40.04851 | 4.25999 | 21454 ft | 449 kts | 7° |
| 2026-04-22 12:44 | 40.07949 | 4.26712 | 21590 ft | 450 kts | 7° |
| 2026-04-22 12:45 | 40.11020 | 4.27431 | 21706 ft | 451 kts | 7° |
| 2026-04-22 12:45 | 40.14093 | 4.28158 | 21815 ft | 452 kts | 7° |
| 2026-04-22 12:45 | 40.17215 | 4.28898 | 21926 ft | 452 kts | 7° |
| 2026-04-22 12:45 | 40.20293 | 4.29629 | 22038 ft | 453 kts | 7° |
| 2026-04-22 12:46 | 40.23390 | 4.30364 | 22143 ft | 454 kts | 7° |
| 2026-04-22 12:46 | 40.26523 | 4.31108 | 22250 ft | 454 kts | 7° |
| 2026-04-22 12:46 | 40.29629 | 4.31845 | 22356 ft | 455 kts | 7° |
| 2026-04-22 12:46 | 40.32734 | 4.32583 | 22445 ft | 456 kts | 7° |
| 2026-04-22 12:47 | 40.35880 | 4.33332 | 22553 ft | 456 kts | 7° |
| 2026-04-22 12:47 | 40.38988 | 4.34071 | 22640 ft | 457 kts | 7° |
| 2026-04-22 12:47 | 40.42100 | 4.34813 | 22729 ft | 457 kts | 7° |
| 2026-04-22 12:47 | 40.45219 | 4.35558 | 22888 ft | 456 kts | 7° |
| 2026-04-22 12:48 | 40.48370 | 4.36310 | 23021 ft | 456 kts | 7° |
| 2026-04-22 12:48 | 40.51485 | 4.37053 | 23100 ft | 456 kts | 7° |
| 2026-04-22 12:48 | 40.54623 | 4.37797 | 23164 ft | 457 kts | 7° |
| 2026-04-22 12:48 | 40.57720 | 4.38530 | 23256 ft | 458 kts | 7° |
| 2026-04-22 12:49 | 40.60876 | 4.39277 | 23345 ft | 458 kts | 7° |
| 2026-04-22 12:49 | 40.64002 | 4.40018 | 23416 ft | 458 kts | 7° |
| 2026-04-22 12:49 | 40.67168 | 4.40770 | 23488 ft | 459 kts | 7° |
| 2026-04-22 12:49 | 40.70287 | 4.41511 | 23562 ft | 459 kts | 7° |
| 2026-04-22 12:50 | 40.73423 | 4.42258 | 23624 ft | 460 kts | 7° |
| 2026-04-22 12:50 | 40.76584 | 4.43012 | 23685 ft | 460 kts | 7° |
| 2026-04-22 12:50 | 40.79734 | 4.43764 | 23750 ft | 460 kts | 7° |
| 2026-04-22 12:50 | 40.82868 | 4.44513 | 23808 ft | 460 kts | 7° |
| 2026-04-22 12:51 | 40.86037 | 4.45270 | 23867 ft | 461 kts | 7° |
| 2026-04-22 12:51 | 40.89184 | 4.46023 | 23912 ft | 461 kts | 7° |
| 2026-04-22 12:51 | 40.92341 | 4.46785 | 23958 ft | 462 kts | 7° |
| 2026-04-22 12:51 | 40.95499 | 4.47557 | 24018 ft | 462 kts | 7° |
| 2026-04-22 12:52 | 40.98656 | 4.48331 | 24069 ft | 462 kts | 7° |
| 2026-04-22 12:52 | 41.01844 | 4.49114 | 24109 ft | 462 kts | 7° |
| 2026-04-22 12:52 | 41.04978 | 4.49881 | 24158 ft | 462 kts | 7° |
| 2026-04-22 12:52 | 41.08173 | 4.50664 | 24212 ft | 462 kts | 7° |
| 2026-04-22 12:53 | 41.11325 | 4.51434 | 24254 ft | 463 kts | 7° |
| 2026-04-22 12:53 | 41.14515 | 4.52212 | 24287 ft | 463 kts | 7° |
| 2026-04-22 12:53 | 41.17674 | 4.52983 | 24323 ft | 464 kts | 7° |
| 2026-04-22 12:53 | 41.20823 | 4.53752 | 24367 ft | 464 kts | 7° |
| 2026-04-22 12:54 | 41.24011 | 4.54532 | 24409 ft | 464 kts | 7° |
| 2026-04-22 12:54 | 41.27186 | 4.55309 | 24442 ft | 464 kts | 7° |
| 2026-04-22 12:54 | 41.30327 | 4.56080 | 24474 ft | 464 kts | 7° |
| 2026-04-22 12:54 | 41.33502 | 4.56860 | 24530 ft | 464 kts | 7° |
| 2026-04-22 12:55 | 41.36668 | 4.57638 | 24594 ft | 464 kts | 7° |
| 2026-04-22 12:55 | 41.39783 | 4.58405 | 24635 ft | 464 kts | 7° |
| 2026-04-22 12:55 | 41.42961 | 4.59187 | 24676 ft | 464 kts | 7° |
| 2026-04-22 12:55 | 41.46159 | 4.59975 | 24711 ft | 464 kts | 7° |
| 2026-04-22 12:56 | 41.49327 | 4.60757 | 24731 ft | 465 kts | 7° |
| 2026-04-22 12:56 | 41.52487 | 4.61538 | 24780 ft | 465 kts | 7° |
| 2026-04-22 12:56 | 41.55697 | 4.62332 | 24822 ft | 465 kts | 7° |
| 2026-04-22 12:56 | 41.58870 | 4.63117 | 24853 ft | 465 kts | 7° |
| 2026-04-22 12:57 | 41.62043 | 4.63904 | 24871 ft | 465 kts | 7° |
| 2026-04-22 12:57 | 41.65235 | 4.64695 | 24901 ft | 465 kts | 7° |
| 2026-04-22 12:57 | 41.68395 | 4.65480 | 24938 ft | 465 kts | 7° |
| 2026-04-22 12:57 | 41.71569 | 4.66273 | 24973 ft | 466 kts | 8° |
| 2026-04-22 12:58 | 41.74723 | 4.67383 | 24985 ft | 470 kts | 17° |
| 2026-04-22 12:58 | 41.77748 | 4.69042 | 25032 ft | 471 kts | 20° |
| 2026-04-22 12:58 | 41.80778 | 4.70826 | 25056 ft | 472 kts | 20° |
| 2026-04-22 12:58 | 41.83769 | 4.72609 | 25073 ft | 472 kts | 20° |
| 2026-04-22 12:59 | 41.86763 | 4.74384 | 25087 ft | 473 kts | 20° |
| 2026-04-22 12:59 | 41.89771 | 4.76151 | 25109 ft | 473 kts | 20° |
| 2026-04-22 12:59 | 41.92808 | 4.77919 | 25140 ft | 473 kts | 20° |
| 2026-04-22 12:59 | 41.95815 | 4.79661 | 25161 ft | 473 kts | 20° |
| 2026-04-22 13:00 | 41.98835 | 4.81406 | 25178 ft | 473 kts | 20° |
| 2026-04-22 13:00 | 42.01844 | 4.83144 | 25204 ft | 473 kts | 20° |
| 2026-04-22 13:00 | 42.04875 | 4.84898 | 25224 ft | 473 kts | 20° |
| 2026-04-22 13:00 | 42.07892 | 4.86645 | 25242 ft | 473 kts | 20° |
| 2026-04-22 13:01 | 42.10913 | 4.88398 | 25268 ft | 473 kts | 20° |
| 2026-04-22 13:01 | 42.13968 | 4.90173 | 25279 ft | 474 kts | 20° |
| 2026-04-22 13:01 | 42.16971 | 4.91920 | 25399 ft | 471 kts | 20° |
| 2026-04-22 13:01 | 42.19991 | 4.93679 | 25493 ft | 470 kts | 20° |
| 2026-04-22 13:02 | 42.22996 | 4.95431 | 25515 ft | 470 kts | 20° |
| 2026-04-22 13:02 | 42.25991 | 4.97178 | 25520 ft | 471 kts | 20° |
| 2026-04-22 13:02 | 42.28980 | 4.98924 | 25539 ft | 471 kts | 20° |
| 2026-04-22 13:02 | 42.32009 | 5.00695 | 25560 ft | 471 kts | 20° |
| 2026-04-22 13:03 | 42.35037 | 5.02468 | 25580 ft | 472 kts | 20° |
| 2026-04-22 13:03 | 42.38028 | 5.04220 | 25646 ft | 471 kts | 20° |
| 2026-04-22 13:03 | 42.41004 | 5.05971 | 25762 ft | 469 kts | 21° |
| 2026-04-22 13:03 | 42.43960 | 5.07956 | 25808 ft | 471 kts | 25° |
| 2026-04-22 13:04 | 42.46814 | 5.10070 | 25828 ft | 472 kts | 26° |
| 2026-04-22 13:04 | 42.49667 | 5.12256 | 25845 ft | 472 kts | 26° |
| 2026-04-22 13:04 | 42.52546 | 5.14480 | 25883 ft | 472 kts | 26° |
| 2026-04-22 13:04 | 42.55386 | 5.16665 | 25914 ft | 472 kts | 26° |
| 2026-04-22 13:05 | 42.58240 | 5.18845 | 25942 ft | 472 kts | 26° |
| 2026-04-22 13:05 | 42.61105 | 5.21021 | 25968 ft | 472 kts | 26° |
| 2026-04-22 13:05 | 42.64005 | 5.23215 | 26005 ft | 472 kts | 26° |
| 2026-04-22 13:05 | 42.66861 | 5.25375 | 26040 ft | 472 kts | 26° |
| 2026-04-22 13:06 | 42.69743 | 5.27554 | 26058 ft | 472 kts | 26° |
| 2026-04-22 13:06 | 42.72587 | 5.29707 | 26086 ft | 472 kts | 26° |
| 2026-04-22 13:06 | 42.74501 | 5.31158 | 26103 ft | 472 kts | 26° |
| 2026-04-22 13:06 | 42.78331 | 5.34066 | 26138 ft | 472 kts | 26° |
| 2026-04-22 13:07 | 42.81182 | 5.36233 | 26165 ft | 472 kts | 26° |
| 2026-04-22 13:07 | 42.83104 | 5.37696 | 26181 ft | 472 kts | 26° |
| 2026-04-22 13:07 | 42.85998 | 5.39900 | 26204 ft | 472 kts | 26° |
| 2026-04-22 13:07 | 42.88870 | 5.42090 | 26235 ft | 472 kts | 26° |
| 2026-04-22 13:08 | 42.91718 | 5.44264 | 26265 ft | 472 kts | 26° |
| 2026-04-22 13:08 | 42.94562 | 5.46436 | 26279 ft | 472 kts | 26° |
| 2026-04-22 13:08 | 42.97448 | 5.48644 | 26294 ft | 472 kts | 26° |
| 2026-04-22 13:08 | 43.00295 | 5.50825 | 26307 ft | 472 kts | 26° |
| 2026-04-22 13:09 | 43.03176 | 5.53033 | 26331 ft | 472 kts | 26° |
| 2026-04-22 13:09 | 43.06020 | 5.55217 | 26347 ft | 472 kts | 26° |
| 2026-04-22 13:09 | 43.08773 | 5.57728 | 26347 ft | 477 kts | 35° |
| 2026-04-22 13:09 | 43.11250 | 5.60807 | 26361 ft | 481 kts | 44° |
| 2026-04-22 13:10 | 43.13352 | 5.64379 | 26376 ft | 484 kts | 52° |
| 2026-04-22 13:10 | 43.15253 | 5.68136 | 26400 ft | 485 kts | 53° |
| 2026-04-22 13:10 | 43.17165 | 5.71938 | 26410 ft | 485 kts | 52° |
| 2026-04-22 13:10 | 43.19131 | 5.75744 | 26417 ft | 485 kts | 51° |
| 2026-04-22 13:11 | 43.21062 | 5.79540 | 26442 ft | 486 kts | 56° |
| 2026-04-22 13:11 | 43.22624 | 5.83652 | 26452 ft | 490 kts | 64° |
| 2026-04-22 13:11 | 43.23738 | 5.88054 | 26470 ft | 493 kts | 74° |
| 2026-04-22 13:11 | 43.24424 | 5.92651 | 26493 ft | 494 kts | 77° |
| 2026-04-22 13:12 | 43.25030 | 5.97287 | 26505 ft | 495 kts | 78° |
| 2026-04-22 13:12 | 43.25625 | 6.01955 | 26527 ft | 495 kts | 78° |
| 2026-04-22 13:12 | 43.26223 | 6.06580 | 26536 ft | 494 kts | 78° |
| 2026-04-22 13:12 | 43.26843 | 6.11266 | 26549 ft | 494 kts | 77° |
| 2026-04-22 13:13 | 43.27466 | 6.15876 | 26566 ft | 494 kts | 77° |
| 2026-04-22 13:13 | 43.28101 | 6.20527 | 26580 ft | 494 kts | 77° |
| 2026-04-22 13:13 | 43.28733 | 6.25135 | 26601 ft | 494 kts | 77° |
| 2026-04-22 13:13 | 43.29370 | 6.29793 | 26618 ft | 494 kts | 77° |
| 2026-04-22 13:14 | 43.30005 | 6.34455 | 26627 ft | 494 kts | 77° |
| 2026-04-22 13:14 | 43.30632 | 6.39081 | 26659 ft | 494 kts | 77° |
| 2026-04-22 13:14 | 43.31255 | 6.43691 | 26674 ft | 495 kts | 77° |
| 2026-04-22 13:14 | 43.31885 | 6.48372 | 26694 ft | 495 kts | 77° |
| 2026-04-22 13:15 | 43.32503 | 6.52990 | 26713 ft | 495 kts | 77° |
| 2026-04-22 13:15 | 43.33125 | 6.57647 | 26730 ft | 495 kts | 77° |
| 2026-04-22 13:15 | 43.33742 | 6.62282 | 26749 ft | 495 kts | 77° |
| 2026-04-22 13:15 | 43.34360 | 6.66939 | 26762 ft | 496 kts | 77° |
| 2026-04-22 13:16 | 43.34982 | 6.71638 | 26779 ft | 496 kts | 77° |
| 2026-04-22 13:16 | 43.35593 | 6.76261 | 26805 ft | 496 kts | 77° |
| 2026-04-22 13:16 | 43.36207 | 6.80928 | 26821 ft | 496 kts | 77° |
| 2026-04-22 13:16 | 43.36646 | 6.84052 | 26828 ft | 496 kts | 74° |
| 2026-04-22 13:17 | 43.37117 | 6.86412 | 26826 ft | 494 kts | 69° |
| 2026-04-22 13:17 | 43.38367 | 6.90766 | 26848 ft | 490 kts | 61° |
| 2026-04-22 13:17 | 43.40026 | 6.94819 | 26855 ft | 485 kts | 51° |
| 2026-04-22 13:17 | 43.42004 | 6.98587 | 26888 ft | 484 kts | 49° |
| 2026-04-22 13:18 | 43.43999 | 7.02288 | 26898 ft | 484 kts | 49° |
| 2026-04-22 13:18 | 43.46024 | 7.06054 | 26913 ft | 485 kts | 49° |
| 2026-04-22 13:18 | 43.48005 | 7.09781 | 26925 ft | 485 kts | 50° |
| 2026-04-22 13:18 | 43.49995 | 7.13567 | 26939 ft | 486 kts | 50° |
| 2026-04-22 13:19 | 43.51953 | 7.17321 | 26953 ft | 486 kts | 50° |
| 2026-04-22 13:19 | 43.53913 | 7.21095 | 26971 ft | 486 kts | 50° |
| 2026-04-22 13:19 | 43.55892 | 7.24913 | 26993 ft | 486 kts | 50° |
| 2026-04-22 13:19 | 43.57852 | 7.28697 | 27013 ft | 487 kts | 50° |
| 2026-04-22 13:20 | 43.59811 | 7.32479 | 27018 ft | 487 kts | 50° |
| 2026-04-22 13:20 | 43.61801 | 7.36323 | 27033 ft | 487 kts | 50° |
| 2026-04-22 13:20 | 43.63749 | 7.40092 | 27049 ft | 487 kts | 50° |
| 2026-04-22 13:20 | 43.65726 | 7.43916 | 27064 ft | 487 kts | 50° |
| 2026-04-22 13:21 | 43.67681 | 7.47704 | 27077 ft | 487 kts | 50° |
| 2026-04-22 13:21 | 43.69662 | 7.51548 | 27091 ft | 487 kts | 50° |
| 2026-04-22 13:21 | 43.71614 | 7.55342 | 27100 ft | 487 kts | 50° |
| 2026-04-22 13:21 | 43.73578 | 7.59160 | 27118 ft | 487 kts | 50° |
| 2026-04-22 13:22 | 43.75523 | 7.62949 | 27141 ft | 487 kts | 50° |
| 2026-04-22 13:22 | 43.77475 | 7.66769 | 27142 ft | 488 kts | 50° |
| 2026-04-22 13:22 | 43.79429 | 7.70618 | 27169 ft | 488 kts | 50° |
| 2026-04-22 13:22 | 43.81464 | 7.74403 | 27181 ft | 484 kts | 44° |
| 2026-04-22 13:23 | 43.83774 | 7.77703 | 27195 ft | 477 kts | 35° |
| 2026-04-22 13:23 | 43.86402 | 7.80515 | 27241 ft | 473 kts | 31° |
| 2026-04-22 13:23 | 43.89027 | 7.83202 | 27296 ft | 473 kts | 31° |
| 2026-04-22 13:23 | 43.91656 | 7.85965 | 27345 ft | 473 kts | 32° |
| 2026-04-22 13:24 | 43.94365 | 7.88561 | 27342 ft | 468 kts | 24° |
| 2026-04-22 13:24 | 43.97249 | 7.90558 | 27380 ft | 461 kts | 15° |
| 2026-04-22 13:24 | 44.00264 | 7.91909 | 27391 ft | 455 kts | 9° |
| 2026-04-22 13:24 | 44.03294 | 7.93061 | 27432 ft | 455 kts | 9° |
| 2026-04-22 13:25 | 44.06376 | 7.94210 | 27422 ft | 454 kts | 9° |
| 2026-04-22 13:25 | 44.09400 | 7.95346 | 27484 ft | 452 kts | 9° |
| 2026-04-22 13:25 | 44.12417 | 7.96494 | 27509 ft | 452 kts | 9° |
| 2026-04-22 13:25 | 44.15479 | 7.97676 | 27541 ft | 453 kts | 9° |
| 2026-04-22 13:26 | 44.18506 | 7.98854 | 27581 ft | 453 kts | 9° |
| 2026-04-22 13:26 | 44.21538 | 8.00043 | 27590 ft | 454 kts | 9° |
| 2026-04-22 13:26 | 44.24602 | 8.01249 | 27626 ft | 453 kts | 9° |
| 2026-04-22 13:26 | 44.27614 | 8.02438 | 27656 ft | 452 kts | 9° |
| 2026-04-22 13:27 | 44.30624 | 8.03627 | 27682 ft | 452 kts | 9° |
| 2026-04-22 13:27 | 44.33671 | 8.04831 | 27713 ft | 452 kts | 9° |
| 2026-04-22 13:27 | 44.36686 | 8.06023 | 27779 ft | 451 kts | 9° |
| 2026-04-22 13:27 | 44.39688 | 8.07210 | 27792 ft | 452 kts | 9° |
| 2026-04-22 13:28 | 44.42739 | 8.08418 | 27825 ft | 452 kts | 9° |
| 2026-04-22 13:28 | 44.45746 | 8.09610 | 27848 ft | 452 kts | 9° |
| 2026-04-22 13:28 | 44.48794 | 8.10820 | 27869 ft | 452 kts | 9° |
| 2026-04-22 13:28 | 44.51807 | 8.12017 | 27883 ft | 452 kts | 8° |
| 2026-04-22 13:29 | 44.54851 | 8.13228 | 27896 ft | 451 kts | 9° |
| 2026-04-22 13:29 | 44.57845 | 8.14420 | 27923 ft | 450 kts | 8° |
| 2026-04-22 13:29 | 44.60884 | 8.15632 | 27966 ft | 450 kts | 8° |
| 2026-04-22 13:29 | 44.63882 | 8.16827 | 27985 ft | 451 kts | 8° |
| 2026-04-22 13:30 | 44.66884 | 8.18026 | 27998 ft | 451 kts | 8° |
| 2026-04-22 13:30 | 44.72937 | 8.20448 | 28039 ft | 451 kts | 8° |
| 2026-04-22 13:31 | 44.78981 | 8.22872 | 28102 ft | 450 kts | 8° |
| 2026-04-22 13:31 | 44.84974 | 8.25281 | 28153 ft | 449 kts | 8° |
| 2026-04-22 13:32 | 44.90965 | 8.27694 | 28213 ft | 448 kts | 8° |
| 2026-04-22 13:32 | 44.96907 | 8.30440 | 28260 ft | 454 kts | 14° |
| 2026-04-22 13:33 | 45.02740 | 8.33995 | 28320 ft | 455 kts | 15° |
| 2026-04-22 13:33 | 45.08542 | 8.37626 | 28369 ft | 454 kts | 15° |
| 2026-04-22 13:34 | 45.14337 | 8.41200 | 28432 ft | 453 kts | 14° |
| 2026-04-22 13:34 | 45.20107 | 8.44723 | 28474 ft | 453 kts | 14° |
| 2026-04-22 13:35 | 45.25904 | 8.48259 | 28523 ft | 452 kts | 14° |
| 2026-04-22 13:35 | 45.31644 | 8.51769 | 28576 ft | 451 kts | 14° |
| 2026-04-22 13:36 | 45.37399 | 8.55297 | 28626 ft | 450 kts | 14° |
| 2026-04-22 13:36 | 45.43153 | 8.58833 | 28677 ft | 449 kts | 14° |
| 2026-04-22 13:37 | 45.48897 | 8.62371 | 28724 ft | 448 kts | 14° |
| 2026-04-22 13:37 | 45.54612 | 8.65899 | 28763 ft | 447 kts | 13° |
| 2026-04-22 13:38 | 45.60305 | 8.69421 | 28779 ft | 447 kts | 13° |
| 2026-04-22 13:38 | 45.68838 | 8.74715 | 28843 ft | 445 kts | 14° |
| 2026-04-22 13:39 | 45.74524 | 8.78252 | 28900 ft | 445 kts | 14° |
| 2026-04-22 13:39 | 45.80198 | 8.81790 | 28955 ft | 444 kts | 14° |
| 2026-04-22 13:40 | 45.85873 | 8.85336 | 28996 ft | 443 kts | 14° |
| 2026-04-22 13:40 | 45.91465 | 8.88839 | 29068 ft | 439 kts | 14° |
| 2026-04-22 13:41 | 45.97073 | 8.92361 | 29203 ft | 438 kts | 14° |
| 2026-04-22 13:41 | 46.02634 | 8.95860 | 29265 ft | 435 kts | 14° |
| 2026-04-22 13:42 | 46.08185 | 8.99358 | 29338 ft | 433 kts | 15° |
| 2026-04-22 13:42 | 46.13690 | 9.02599 | 29422 ft | 424 kts | 7° |
| 2026-04-22 13:43 | 46.19409 | 9.03818 | 29506 ft | 410 kts | 354° |
| 2026-04-22 13:43 | 46.25055 | 9.03158 | 29545 ft | 405 kts | 348° |
| 2026-04-22 13:44 | 46.30653 | 9.02332 | 29592 ft | 407 kts | 348° |
| 2026-04-22 13:44 | 46.36314 | 9.01548 | 29651 ft | 407 kts | 349° |
| 2026-04-22 13:45 | 46.41956 | 9.00786 | 29762 ft | 408 kts | 349° |
| 2026-04-22 13:45 | 46.47608 | 9.00021 | 29828 ft | 412 kts | 349° |
| 2026-04-22 13:46 | 46.53341 | 8.99246 | 29871 ft | 413 kts | 350° |
| 2026-04-22 13:46 | 46.59074 | 8.98468 | 29907 ft | 414 kts | 350° |
| 2026-04-22 13:47 | 46.64799 | 8.97691 | 29981 ft | 414 kts | 350° |
| 2026-04-22 13:47 | 46.70536 | 8.96911 | 30031 ft | 414 kts | 350° |
| 2026-04-22 13:48 | 46.76266 | 8.96129 | 30062 ft | 414 kts | 350° |
| 2026-04-22 13:48 | 46.81981 | 8.95349 | 30173 ft | 414 kts | 351° |
| 2026-04-22 13:49 | 46.86775 | 8.94693 | 30176 ft | 411 kts | 351° |
| 2026-04-22 13:49 | 46.92486 | 8.93914 | 30206 ft | 418 kts | 351° |
| 2026-04-22 13:50 | 46.95389 | 8.93528 | 30353 ft | 422 kts | 351° |
| 2026-04-22 13:50 | 46.98350 | 8.93132 | 30488 ft | 426 kts | 351° |
| 2026-04-22 13:50 | 47.01307 | 8.92734 | 30670 ft | 429 kts | 351° |
| 2026-04-22 13:50 | 47.04261 | 8.92338 | 31000 ft | 427 kts | 351° |
| 2026-04-22 13:51 | 47.07226 | 8.91943 | 31434 ft | 424 kts | 351° |
| 2026-04-22 13:51 | 47.10002 | 8.91570 | 31735 ft | 424 kts | 351° |
| 2026-04-22 13:51 | 47.12960 | 8.91171 | 32011 ft | 424 kts | 351° |
| 2026-04-22 13:51 | 47.15895 | 8.90774 | 32286 ft | 424 kts | 351° |
| 2026-04-22 13:52 | 47.18824 | 8.90363 | 32590 ft | 424 kts | 351° |
| 2026-04-22 13:52 | 47.21742 | 8.89944 | 32906 ft | 423 kts | 351° |
| 2026-04-22 13:52 | 47.24697 | 8.89519 | 33220 ft | 422 kts | 352° |
| 2026-04-22 13:52 | 47.27630 | 8.89443 | 33468 ft | 426 kts | 359° |
| 2026-04-22 13:53 | 47.30591 | 8.89954 | 33732 ft | 430 kts | 6° |
| 2026-04-22 13:53 | 47.33479 | 8.91061 | 33995 ft | 435 kts | 14° |
| 2026-04-22 13:53 | 47.36333 | 8.92584 | 34197 ft | 432 kts | 15° |
| 2026-04-22 13:53 | 47.39144 | 8.94107 | 34187 ft | 434 kts | 16° |
| 2026-04-22 13:54 | 47.41806 | 8.96252 | 34171 ft | 447 kts | 33° |
| 2026-04-22 13:54 | 47.44074 | 8.99546 | 34177 ft | 460 kts | 46° |
| 2026-04-22 13:54 | 47.45718 | 9.03644 | 34194 ft | 473 kts | 63° |
| 2026-04-22 13:54 | 47.46797 | 9.08190 | 34180 ft | 478 kts | 67° |
| 2026-04-22 13:55 | 47.48723 | 9.17678 | 34182 ft | 480 kts | 68° |
| 2026-04-22 13:55 | 47.50642 | 9.27125 | 34181 ft | 480 kts | 68° |
| 2026-04-22 13:56 | 47.52622 | 9.36511 | 34189 ft | 479 kts | 67° |
| 2026-04-22 13:56 | 47.54620 | 9.45906 | 34185 ft | 477 kts | 67° |
| 2026-04-22 13:57 | 47.56600 | 9.55283 | 34185 ft | 476 kts | 68° |
| 2026-04-22 13:57 | 47.58826 | 9.64394 | 34186 ft | 467 kts | 57° |
| 2026-04-22 13:58 | 47.62455 | 9.72168 | 34222 ft | 454 kts | 44° |
| 2026-04-22 13:58 | 47.66583 | 9.79224 | 34198 ft | 453 kts | 44° |
| 2026-04-22 13:59 | 47.68634 | 9.82771 | 34068 ft | 446 kts | 44° |
| 2026-04-22 13:59 | 47.70562 | 9.86204 | 33507 ft | 444 kts | 49° |
| 2026-04-22 13:59 | 47.72199 | 9.90157 | 32718 ft | 454 kts | 60° |
| 2026-04-22 13:59 | 47.73330 | 9.94600 | 31883 ft | 463 kts | 70° |
| 2026-04-22 14:00 | 47.74004 | 9.99179 | 31088 ft | 466 kts | 78° |
| 2026-04-22 14:00 | 47.74286 | 10.04025 | 30039 ft | 464 kts | 78° |
| 2026-04-22 14:00 | 47.75151 | 10.08567 | 28635 ft | 456 kts | 60° |
| 2026-04-22 14:00 | 47.76897 | 10.12401 | 27256 ft | 449 kts | 44° |
| 2026-04-22 14:01 | 47.79302 | 10.15346 | 25850 ft | 445 kts | 29° |
| 2026-04-22 14:01 | 47.82101 | 10.17163 | 24672 ft | 439 kts | 15° |
| 2026-04-22 14:01 | 47.85092 | 10.17967 | 23650 ft | 431 kts | 3° |
| 2026-04-22 14:01 | 47.88053 | 10.17757 | 22505 ft | 424 kts | 358° |
| 2026-04-22 14:02 | 47.90971 | 10.18107 | 21343 ft | 417 kts | 14° |
| 2026-04-22 14:02 | 47.93589 | 10.19757 | 20284 ft | 412 kts | 32° |
| 2026-04-22 14:02 | 47.95732 | 10.22580 | 19324 ft | 408 kts | 51° |
| 2026-04-22 14:02 | 47.97019 | 10.26188 | 19098 ft | 390 kts | 70° |
| 2026-04-22 14:03 | 47.97404 | 10.30122 | 18933 ft | 374 kts | 90° |
| 2026-04-22 14:03 | 47.96871 | 10.33799 | 18814 ft | 361 kts | 110° |
| 2026-04-22 14:03 | 47.95519 | 10.36873 | 18692 ft | 350 kts | 132° |
| 2026-04-22 14:03 | 47.93580 | 10.38912 | 18529 ft | 341 kts | 154° |
| 2026-04-22 14:04 | 47.91274 | 10.39763 | 17992 ft | 341 kts | 177° |
| 2026-04-22 14:04 | 47.88941 | 10.39272 | 17351 ft | 342 kts | 201° |
| 2026-04-22 14:04 | 47.86983 | 10.37580 | 16876 ft | 335 kts | 223° |
| 2026-04-22 14:04 | 47.85463 | 10.34955 | 16300 ft | 332 kts | 237° |
| 2026-04-22 14:05 | 47.84168 | 10.32153 | 15776 ft | 330 kts | 238° |
| 2026-04-22 14:05 | 47.82902 | 10.29288 | 15269 ft | 328 kts | 238° |
| 2026-04-22 14:05 | 47.80414 | 10.23546 | 13600 ft | 344 kts | 238° |
| 2026-04-22 14:06 | 47.79116 | 10.20469 | 12536 ft | 355 kts | 238° |
| 2026-04-22 14:06 | 47.77815 | 10.17315 | 11480 ft | 363 kts | 238° |
| 2026-04-22 14:06 | 47.76562 | 10.13995 | 10439 ft | 369 kts | 247° |
| 2026-04-22 14:06 | 47.76003 | 10.10275 | 9394 ft | 373 kts | 269° |
| 2026-04-22 14:07 | 47.76386 | 10.06551 | 8712 ft | 364 kts | 291° |
| 2026-04-22 14:07 | 47.77609 | 10.03322 | 8075 ft | 352 kts | 313° |
| 2026-04-22 14:07 | 47.79404 | 10.00916 | 7534 ft | 341 kts | 324° |
| 2026-04-22 14:07 | 47.81353 | 9.98979 | 6855 ft | 337 kts | 332° |
| 2026-04-22 14:08 | 47.83394 | 9.97315 | 6185 ft | 330 kts | 341° |
| 2026-04-22 14:08 | 47.85572 | 9.96604 | 5604 ft | 318 kts | 3° |
| 2026-04-22 14:08 | 47.87695 | 9.97149 | 4994 ft | 305 kts | 26° |
| 2026-04-22 14:08 | 47.89402 | 9.98827 | 4538 ft | 290 kts | 47° |
| 2026-04-22 14:09 | 47.90462 | 10.01331 | 4050 ft | 280 kts | 72° |
| 2026-04-22 14:09 | 47.90637 | 10.04074 | 4004 ft | 260 kts | 97° |
| 2026-04-22 14:09 | 47.90053 | 10.06554 | 3986 ft | 242 kts | 104° |
| 2026-04-22 14:09 | 47.90051 | 10.09050 | 3161 ft | 252 kts | 72° |
| 2026-04-22 14:10 | 47.90856 | 10.11199 | 3211 ft | 229 kts | 50° |
| 2026-04-22 14:10 | 47.92073 | 10.12725 | 2626 ft | 233 kts | 30° |
| 2026-04-22 14:10 | 47.93447 | 10.13804 | 2910 ft | 208 kts | 38° |
| 2026-04-22 14:10 | 47.94465 | 10.14984 | 3275 ft | 172 kts | 38° |
| 2026-04-22 14:11 | 47.95442 | 10.16105 | 2617 ft | 182 kts | 44° |
| 2026-04-22 14:11 | 47.96257 | 10.17550 | 2691 ft | 178 kts | 54° |
| 2026-04-22 14:11 | 47.96949 | 10.18962 | 2537 ft | 164 kts | 57° |
| 2026-04-22 14:11 | 47.97504 | 10.20428 | 2358 ft | 157 kts | 60° |
| 2026-04-22 14:12 | 47.97999 | 10.21725 | 2230 ft | 131 kts | 59° |
| 2026-04-22 14:12 | 47.98425 | 10.22788 | 2110 ft | 112 kts | 59° |
| 2026-04-22 14:12 | 47.98774 | 10.23688 | 2079 ft | 63 kts | 60° |
| 2026-04-22 14:12 | 47.98861 | 10.23754 | 2076 ft | 8 kts | 323° |
| 2026-04-22 14:13 | 47.98908 | 10.23679 | 2078 ft | 14 kts | 293° |
| 2026-04-22 14:13 | 47.98884 | 10.23520 | 2077 ft | 16 kts | 250° |
| 2026-04-22 14:13 | 47.98847 | 10.23363 | 2077 ft | 17 kts | 249° |
| 2026-04-22 14:13 | 47.98823 | 10.23228 | 2077 ft | 9 kts | 289° |
| 2026-04-22 14:14 | 47.98841 | 10.23217 | 2076 ft | 3 kts | 349° |
| 2026-04-22 14:14 | 47.98848 | 10.23215 | 2077 ft | 3 kts | 348° |